Terminal Aerodrome Forecast
Issued by NWS Wilmington, NC

Home | Current Version | Previous Version | Text Only | Print | Product List | Glossary On
Versions: 1 2 3 4 5 6 7 8 9 10 11 12 13 14 15
000
FTUS42 KILM 191700
TAFFLO
TAF
KFLO 191721Z 1918/2018 04014G22KT 6SM BR OVC008
     FM192200 04014G20KT 3SM -RA BR OVC007
     FM200400 04014G25KT 6SM -RA OVC008
     FM200800 03015G25KT P6SM VCSH BKN010 OVC025=

USA.gov is the U.S. government's official web portal to all federal, state and local government web resources and services.